Time;durP1;ratioP1;P1;durP2;ratioP2;P2;SDS_P1;SDS_P2;PMS_P1;PMS_P2;Temp;Humidity;BMP_temperature;BMP_pressure;BME280_temperature;BME280_humidity;BME280_pressure;Samples;Min_cycle;Max_cycle;Signal;HPM_P1;HPM_P2
2022/01/09 00:00:04;;;;;;;1.10;1.00;;;;;;;;;;5073170;28;20492;-71
2022/01/09 00:02:30;;;;;;;0.80;0.80;;;;;;;;;;5073217;28;20406;-70
2022/01/09 00:04:56;;;;;;;1.00;0.80;;;;;;;;;;5073224;28;20545;-71
2022/01/09 00:07:22;;;;;;;2.60;1.20;;;;;;;;;;5073112;28;20763;-70
2022/01/09 00:09:48;;;;;;;1.67;0.70;;;;;;;;;;5054933;28;20417;-70
2022/01/09 00:12:14;;;;;;;0.63;0.60;;;;;;;;;;5073211;28;20410;-71
2022/01/09 00:14:40;;;;;;;2.07;0.87;;;;;;;;;;5073044;28;20425;-70
2022/01/09 00:17:06;;;;;;;2.40;0.93;;;;;;;;;;5072961;28;20410;-71
2022/01/09 00:19:32;;;;;;;0.60;0.57;;;;;;;;;;5055054;28;20506;-71
2022/01/09 00:21:58;;;;;;;1.23;0.60;;;;;;;;;;5072952;28;20803;-71
2022/01/09 00:24:24;;;;;;;1.80;0.97;;;;;;;;;;5072970;28;20419;-71
2022/01/09 00:26:50;;;;;;;1.10;0.93;;;;;;;;;;5072855;28;20480;-71
2022/01/09 00:29:16;;;;;;;0.70;0.70;;;;;;;;;;5072875;28;20764;-71
2022/01/09 00:31:42;;;;;;;0.80;0.60;;;;;;;;;;5074258;28;20397;-71
2022/01/09 00:34:08;;;;;;;0.73;0.73;;;;;;;;;;5076924;28;20420;-71
2022/01/09 00:36:34;;;;;;;0.60;0.50;;;;;;;;;;5076890;28;20756;-71
2022/01/09 00:39:00;;;;;;;0.50;0.50;;;;;;;;;;5076676;28;20457;-71
2022/01/09 00:41:26;;;;;;;0.80;0.50;;;;;;;;;;5058899;28;20425;-71
2022/01/09 00:43:52;;;;;;;1.77;0.60;;;;;;;;;;5076738;28;20761;-71
2022/01/09 00:46:18;;;;;;;0.70;0.60;;;;;;;;;;5058834;28;20433;-71
2022/01/09 00:48:44;;;;;;;0.97;0.60;;;;;;;;;;5076680;28;20896;-71
2022/01/09 00:51:10;;;;;;;0.60;0.50;;;;;;;;;;5076619;28;20401;-71
2022/01/09 00:53:36;;;;;;;0.80;0.70;;;;;;;;;;5076499;28;20399;-72
2022/01/09 00:56:02;;;;;;;0.60;0.60;;;;;;;;;;5076470;28;20414;-71
2022/01/09 00:58:28;;;;;;;0.63;0.60;;;;;;;;;;5075989;28;20457;-71
2022/01/09 01:00:54;;;;;;;0.50;0.50;;;;;;;;;;5076469;28;20472;-71
2022/01/09 01:03:20;;;;;;;0.50;0.40;;;;;;;;;;5076372;28;20413;-71
2022/01/09 01:05:46;;;;;;;0.60;0.57;;;;;;;;;;5076309;28;20958;-72
2022/01/09 01:08:13;;;;;;;0.50;0.40;;;;;;;;;;5076308;28;20409;-71
2022/01/09 01:10:39;;;;;;;0.50;0.40;;;;;;;;;;5076254;28;20412;-70
2022/01/09 01:13:05;;;;;;;1.27;0.50;;;;;;;;;;5058323;28;20398;-72
2022/01/09 01:15:31;;;;;;;0.50;0.50;;;;;;;;;;5076216;28;20396;-70
2022/01/09 01:17:57;;;;;;;0.60;0.60;;;;;;;;;;5058052;28;20414;-70
2022/01/09 01:20:23;;;;;;;0.60;0.50;;;;;;;;;;5076008;28;20461;-73
2022/01/09 01:22:51;;;;;;;0.60;0.50;;;;;;;;;;5076037;28;20747;-70
2022/01/09 01:25:18;;;;;;;1.27;0.60;;;;;;;;;;5076107;28;20412;-70
2022/01/09 01:27:44;;;;;;;0.60;0.60;;;;;;;;;;5075832;28;20417;-69
2022/01/09 01:30:11;;;;;;;0.50;0.40;;;;;;;;;;5075812;28;20441;-69
2022/01/09 01:32:37;;;;;;;0.50;0.47;;;;;;;;;;5075807;28;20428;-70
2022/01/09 01:35:03;;;;;;;0.80;0.50;;;;;;;;;;5075856;28;20401;-69
2022/01/09 01:37:29;;;;;;;0.50;0.40;;;;;;;;;;5075702;28;20402;-69
2022/01/09 01:39:55;;;;;;;0.80;0.50;;;;;;;;;;5075601;28;20465;-69
2022/01/09 01:42:21;;;;;;;0.90;0.50;;;;;;;;;;5075594;28;20931;-70
2022/01/09 01:44:48;;;;;;;0.50;0.50;;;;;;;;;;5074871;28;20415;-69
2022/01/09 01:47:15;;;;;;;0.60;0.40;;;;;;;;;;5075625;28;20405;-70
2022/01/09 01:49:41;;;;;;;2.60;0.50;;;;;;;;;;5075547;28;20404;-69
2022/01/09 01:52:09;;;;;;;0.60;0.47;;;;;;;;;;5075546;28;20406;-70
2022/01/09 01:54:35;;;;;;;0.60;0.47;;;;;;;;;;5075568;28;20401;-70
2022/01/09 01:57:03;;;;;;;0.60;0.43;;;;;;;;;;5075365;28;20409;-70
2022/01/09 01:59:29;;;;;;;0.50;0.40;;;;;;;;;;5088010;28;20975;-69
2022/01/09 02:01:55;;;;;;;0.97;0.40;;;;;;;;;;5095631;28;20887;-69
2022/01/09 02:04:21;;;;;;;0.60;0.50;;;;;;;;;;5094376;28;20506;-70
2022/01/09 02:06:47;;;;;;;0.50;0.40;;;;;;;;;;5095432;28;20900;-69
2022/01/09 02:09:13;;;;;;;0.60;0.53;;;;;;;;;;5094133;28;20436;-70
2022/01/09 02:11:39;;;;;;;0.50;0.40;;;;;;;;;;5094105;28;20411;-70
2022/01/09 02:14:05;;;;;;;0.60;0.60;;;;;;;;;;5095359;28;20425;-71
2022/01/09 02:16:31;;;;;;;0.50;0.40;;;;;;;;;;5095249;28;20396;-69
2022/01/09 02:19:02;;;;;;;0.50;0.40;;;;;;;;;;5095097;28;20491;-69
2022/01/09 02:21:28;;;;;;;0.50;0.40;;;;;;;;;;5095332;28;20445;-69
2022/01/09 02:23:54;;;;;;;0.50;0.40;;;;;;;;;;5095080;28;20954;-70
2022/01/09 02:26:21;;;;;;;1.10;0.50;;;;;;;;;;5095141;28;20409;-70
2022/01/09 02:28:48;;;;;;;0.60;0.50;;;;;;;;;;5093711;28;20417;-71
2022/01/09 02:31:14;;;;;;;1.00;0.50;;;;;;;;;;5093728;28;20425;-69
2022/01/09 02:33:40;;;;;;;2.03;0.47;;;;;;;;;;5095065;28;20404;-69
2022/01/09 02:36:07;;;;;;;0.57;0.50;;;;;;;;;;5094975;28;20393;-69
2022/01/09 02:38:33;;;;;;;1.10;0.67;;;;;;;;;;5094808;28;20448;-70
2022/01/09 02:40:59;;;;;;;0.50;0.40;;;;;;;;;;5094740;28;20467;-70
2022/01/09 02:43:26;;;;;;;0.60;0.50;;;;;;;;;;5094820;28;20409;-70
2022/01/09 02:46:01;;;;;;;0.50;0.40;;;;;;;;;;5093505;28;20778;-70
2022/01/09 02:48:32;;;;;;;1.17;0.50;;;;;;;;;;5093315;28;20420;-70
2022/01/09 02:51:18;;;;;;;0.50;0.40;;;;;;;;;;5094662;28;20420;-69
2022/01/09 02:53:47;;;;;;;0.50;0.40;;;;;;;;;;5094642;28;20983;-69
2022/01/09 02:56:14;;;;;;;0.60;0.40;;;;;;;;;;5094519;28;20822;-69
2022/01/09 02:58:41;;;;;;;0.50;0.47;;;;;;;;;;5083487;28;20475;-69
2022/01/09 03:01:09;;;;;;;0.60;0.57;;;;;;;;;;5074233;28;20410;-69
2022/01/09 03:03:35;;;;;;;0.70;0.50;;;;;;;;;;5074087;28;20410;-69
2022/01/09 03:06:01;;;;;;;0.60;0.50;;;;;;;;;;5056064;28;20422;-69
2022/01/09 03:08:27;;;;;;;0.60;0.50;;;;;;;;;;5073830;28;20818;-69
2022/01/09 03:10:53;;;;;;;0.60;0.40;;;;;;;;;;5055998;28;20450;-69
2022/01/09 03:13:19;;;;;;;0.50;0.40;;;;;;;;;;5074003;28;20401;-70
2022/01/09 03:15:45;;;;;;;0.63;0.50;;;;;;;;;;5055674;28;20424;-69
2022/01/09 03:18:12;;;;;;;0.70;0.50;;;;;;;;;;5073847;28;20449;-70
2022/01/09 03:20:39;;;;;;;0.60;0.50;;;;;;;;;;5073805;28;20468;-71
2022/01/09 03:23:05;;;;;;;0.60;0.50;;;;;;;;;;5073711;28;20445;-70
2022/01/09 03:25:31;;;;;;;1.57;0.50;;;;;;;;;;5073781;28;20485;-70
2022/01/09 03:27:58;;;;;;;0.50;0.50;;;;;;;;;;5073497;28;20440;-70
2022/01/09 03:30:25;;;;;;;0.70;0.63;;;;;;;;;;5073591;28;20404;-70
2022/01/09 03:32:51;;;;;;;0.60;0.50;;;;;;;;;;5055618;28;20784;-69
2022/01/09 03:35:18;;;;;;;0.60;0.50;;;;;;;;;;5055586;28;20521;-70
2022/01/09 03:37:45;;;;;;;0.57;0.40;;;;;;;;;;5073483;28;20451;-70
2022/01/09 03:40:12;;;;;;;0.60;0.40;;;;;;;;;;5073302;28;20786;-71
2022/01/09 03:42:38;;;;;;;0.60;0.50;;;;;;;;;;5073526;28;20429;-70
2022/01/09 03:45:05;;;;;;;0.50;0.40;;;;;;;;;;5073534;28;20404;-70
2022/01/09 03:47:31;;;;;;;0.60;0.40;;;;;;;;;;5073412;28;20410;-69
2022/01/09 03:49:57;;;;;;;0.50;0.40;;;;;;;;;;5073324;28;20417;-70
2022/01/09 03:52:27;;;;;;;0.50;0.50;;;;;;;;;;5073355;28;20489;-71
2022/01/09 03:54:53;;;;;;;0.93;0.50;;;;;;;;;;5073227;28;20771;-70
2022/01/09 03:57:19;;;;;;;0.50;0.40;;;;;;;;;;5073146;28;20905;-70
2022/01/09 03:59:45;;;;;;;0.80;0.57;;;;;;;;;;5073036;28;20476;-71
2022/01/09 04:02:11;;;;;;;0.60;0.50;;;;;;;;;;5073217;28;20405;-71
2022/01/09 04:04:37;;;;;;;0.50;0.40;;;;;;;;;;5055131;28;20795;-71
2022/01/09 04:07:04;;;;;;;0.50;0.40;;;;;;;;;;5072732;28;20454;-70
2022/01/09 04:09:40;;;;;;;1.77;0.50;;;;;;;;;;5073096;28;20430;-70
2022/01/09 04:12:14;;;;;;;0.50;0.40;;;;;;;;;;5073161;28;20469;-71
2022/01/09 04:14:40;;;;;;;0.80;0.60;;;;;;;;;;5055079;28;20417;-73
2022/01/09 04:17:11;;;;;;;0.80;0.50;;;;;;;;;;5073122;28;20827;-72
2022/01/09 04:19:37;;;;;;;0.50;0.40;;;;;;;;;;5055039;28;20461;-74
2022/01/09 04:22:03;;;;;;;0.50;0.50;;;;;;;;;;5073033;28;20408;-72
2022/01/09 04:24:29;;;;;;;0.50;0.50;;;;;;;;;;5054960;28;20437;-72
2022/01/09 04:26:55;;;;;;;0.60;0.50;;;;;;;;;;5072908;28;20952;-72
2022/01/09 04:29:21;;;;;;;0.60;0.50;;;;;;;;;;5072925;28;20930;-74
2022/01/09 04:31:47;;;;;;;0.50;0.50;;;;;;;;;;5072946;28;20903;-72
2022/01/09 04:34:13;;;;;;;0.60;0.50;;;;;;;;;;5072947;28;20406;-71
2022/01/09 04:36:39;;;;;;;1.57;0.50;;;;;;;;;;5054956;28;20418;-75
2022/01/09 04:39:05;;;;;;;0.60;0.40;;;;;;;;;;5054659;28;20488;-71
2022/01/09 04:41:31;;;;;;;0.90;0.60;;;;;;;;;;5054907;28;20552;-74
2022/01/09 04:43:57;;;;;;;0.50;0.40;;;;;;;;;;5072892;28;20404;-73
2022/01/09 04:46:31;;;;;;;0.50;0.40;;;;;;;;;;5072741;28;20400;-71
2022/01/09 04:48:57;;;;;;;0.50;0.40;;;;;;;;;;5072849;28;20421;-73
2022/01/09 04:51:23;;;;;;;0.87;0.50;;;;;;;;;;5072665;28;20469;-74
2022/01/09 04:53:49;;;;;;;0.50;0.40;;;;;;;;;;5072687;28;20909;-75
2022/01/09 04:56:15;;;;;;;0.50;0.43;;;;;;;;;;5072573;28;20401;-74
2022/01/09 04:58:41;;;;;;;0.50;0.40;;;;;;;;;;5071967;28;20468;-74
2022/01/09 05:01:07;;;;;;;0.50;0.40;;;;;;;;;;5092820;28;20507;-75
2022/01/09 05:03:33;;;;;;;0.50;0.30;;;;;;;;;;5091435;28;20439;-71
2022/01/09 05:05:59;;;;;;;0.60;0.40;;;;;;;;;;5091629;28;20412;-70
2022/01/09 05:08:25;;;;;;;0.50;0.40;;;;;;;;;;5092752;28;20413;-72
2022/01/09 05:10:51;;;;;;;0.50;0.30;;;;;;;;;;5092783;28;20902;-73
2022/01/09 05:13:17;;;;;;;0.60;0.40;;;;;;;;;;5092743;28;20409;-75
2022/01/09 05:15:43;;;;;;;0.60;0.43;;;;;;;;;;5091414;28;20940;-75
2022/01/09 05:18:14;;;;;;;0.87;0.50;;;;;;;;;;5093047;28;20791;-74
2022/01/09 05:20:40;;;;;;;0.50;0.40;;;;;;;;;;5095092;28;20467;-75
2022/01/09 05:23:06;;;;;;;0.60;0.40;;;;;;;;;;5096433;28;20508;-75
2022/01/09 05:25:32;;;;;;;0.50;0.30;;;;;;;;;;5096216;28;20930;-74
2022/01/09 05:27:58;;;;;;;1.00;0.50;;;;;;;;;;5094854;28;20516;-71
2022/01/09 05:30:24;;;;;;;0.60;0.40;;;;;;;;;;5096231;28;20499;-70
2022/01/09 05:32:50;;;;;;;0.50;0.40;;;;;;;;;;5096101;28;20891;-71
2022/01/09 05:35:16;;;;;;;1.97;0.60;;;;;;;;;;5095952;28;20415;-70
2022/01/09 05:37:42;;;;;;;0.60;0.40;;;;;;;;;;5096076;28;20820;-70
2022/01/09 05:40:09;;;;;;;0.70;0.40;;;;;;;;;;5095934;28;20483;-70
2022/01/09 05:42:35;;;;;;;0.77;0.50;;;;;;;;;;5095917;28;20402;-71
2022/01/09 05:45:02;;;;;;;0.50;0.40;;;;;;;;;;5094745;28;20431;-71
2022/01/09 05:47:28;;;;;;;0.50;0.30;;;;;;;;;;5095965;28;20408;-71
2022/01/09 05:49:54;;;;;;;0.50;0.40;;;;;;;;;;5095901;28;20406;-70
2022/01/09 05:52:20;;;;;;;0.50;0.40;;;;;;;;;;5095712;28;20909;-70
2022/01/09 05:54:48;;;;;;;0.50;0.40;;;;;;;;;;5095740;28;20405;-69
2022/01/09 05:57:14;;;;;;;0.50;0.43;;;;;;;;;;5095651;28;20413;-70
2022/01/09 05:59:40;;;;;;;1.17;0.40;;;;;;;;;;5076651;28;20482;-71
2022/01/09 06:02:07;;;;;;;0.50;0.40;;;;;;;;;;5057390;28;20752;-71
2022/01/09 06:04:33;;;;;;;1.07;0.40;;;;;;;;;;5075253;28;20401;-71
2022/01/09 06:06:59;;;;;;;0.50;0.40;;;;;;;;;;5057366;28;20417;-71
2022/01/09 06:09:25;;;;;;;2.63;0.80;;;;;;;;;;5057119;28;20517;-72
2022/01/09 06:11:51;;;;;;;0.70;0.50;;;;;;;;;;5057184;28;20418;-70
2022/01/09 06:14:17;;;;;;;0.60;0.40;;;;;;;;;;5075196;28;20406;-72
2022/01/09 06:16:43;;;;;;;1.10;0.60;;;;;;;;;;5074932;28;20428;-74
2022/01/09 06:19:10;;;;;;;0.53;0.40;;;;;;;;;;5074851;28;20454;-76
2022/01/09 06:21:36;;;;;;;1.30;0.53;;;;;;;;;;5074996;28;20413;-71
2022/01/09 06:24:02;;;;;;;1.10;0.97;;;;;;;;;;5074981;28;20412;-72
2022/01/09 06:26:28;;;;;;;0.60;0.60;;;;;;;;;;5056927;28;20412;-71
2022/01/09 06:28:54;;;;;;;1.20;0.60;;;;;;;;;;5074308;28;20421;-72
2022/01/09 06:31:20;;;;;;;0.80;0.60;;;;;;;;;;5056824;28;20470;-70
2022/01/09 06:33:46;;;;;;;0.90;0.70;;;;;;;;;;5074827;28;20414;-71
2022/01/09 06:36:12;;;;;;;1.80;0.50;;;;;;;;;;5074582;28;20516;-70
2022/01/09 06:38:38;;;;;;;0.90;0.47;;;;;;;;;;5074608;28;20984;-75
2022/01/09 06:41:04;;;;;;;1.00;0.90;;;;;;;;;;5056603;28;20555;-70
2022/01/09 06:43:30;;;;;;;0.60;0.50;;;;;;;;;;5074669;28;20413;-70
2022/01/09 06:45:56;;;;;;;1.67;0.60;;;;;;;;;;5074489;28;20413;-71
2022/01/09 06:48:22;;;;;;;1.33;0.50;;;;;;;;;;5074323;28;20849;-71
2022/01/09 06:50:48;;;;;;;0.90;0.60;;;;;;;;;;5056540;28;20457;-71
2022/01/09 06:53:14;;;;;;;1.73;0.60;;;;;;;;;;5074402;28;20406;-71
2022/01/09 06:55:41;;;;;;;0.60;0.60;;;;;;;;;;5056240;28;20414;-70
2022/01/09 06:58:07;;;;;;;0.50;0.40;;;;;;;;;;5073964;28;20465;-71
2022/01/09 07:00:33;;;;;;;2.10;0.53;;;;;;;;;;5056124;28;21062;-71
2022/01/09 07:02:59;;;;;;;0.80;0.50;;;;;;;;;;5074106;28;20886;-70
2022/01/09 07:05:25;;;;;;;0.60;0.50;;;;;;;;;;5074178;28;20471;-71
2022/01/09 07:07:51;;;;;;;1.23;0.60;;;;;;;;;;5074022;28;20451;-70
2022/01/09 07:10:17;;;;;;;0.60;0.50;;;;;;;;;;5074090;28;20406;-73
2022/01/09 07:12:43;;;;;;;0.70;0.50;;;;;;;;;;5073954;28;20389;-75
2022/01/09 07:15:09;;;;;;;0.60;0.50;;;;;;;;;;5073845;28;20396;-74
2022/01/09 07:17:35;;;;;;;0.90;0.50;;;;;;;;;;5055948;28;20403;-74
2022/01/09 07:20:01;;;;;;;1.10;0.60;;;;;;;;;;5055821;28;20468;-75
2022/01/09 07:22:27;;;;;;;0.50;0.50;;;;;;;;;;5073734;28;20547;-75
2022/01/09 07:24:53;;;;;;;0.73;0.60;;;;;;;;;;5073735;28;20405;-74
2022/01/09 07:27:20;;;;;;;0.87;0.70;;;;;;;;;;5055828;28;20430;-75
2022/01/09 07:29:46;;;;;;;1.80;0.80;;;;;;;;;;5073578;28;20403;-75
2022/01/09 07:32:12;;;;;;;1.37;0.60;;;;;;;;;;5073558;28;20397;-75
2022/01/09 07:34:38;;;;;;;3.70;1.00;;;;;;;;;;5055522;28;20414;-75
2022/01/09 07:37:04;;;;;;;2.03;0.70;;;;;;;;;;5055684;28;20398;-75
2022/01/09 07:39:30;;;;;;;4.57;1.10;;;;;;;;;;5073379;28;20572;-75
2022/01/09 07:41:57;;;;;;;4.43;1.10;;;;;;;;;;5072792;28;20481;-75
2022/01/09 07:44:24;;;;;;;1.80;1.30;;;;;;;;;;5073496;28;20408;-76
2022/01/09 07:46:50;;;;;;;1.20;0.97;;;;;;;;;;5073368;28;20427;-76
2022/01/09 07:49:16;;;;;;;1.07;1.00;;;;;;;;;;5073201;28;20440;-76
2022/01/09 07:51:42;;;;;;;4.70;1.07;;;;;;;;;;5073332;28;20412;-75
2022/01/09 07:54:08;;;;;;;2.30;1.00;;;;;;;;;;5073319;28;20437;-76
2022/01/09 07:56:34;;;;;;;2.27;1.00;;;;;;;;;;5073150;28;20830;-75
2022/01/09 07:59:00;;;;;;;3.10;1.30;;;;;;;;;;5077602;28;20842;-69
2022/01/09 08:01:27;;;;;;;4.73;1.80;;;;;;;;;;5093306;28;20506;-69
2022/01/09 08:03:53;;;;;;;4.00;1.20;;;;;;;;;;5093389;28;20789;-73
2022/01/09 08:06:19;;;;;;;3.50;1.27;;;;;;;;;;5093478;28;20466;-72
2022/01/09 08:08:45;;;;;;;2.20;1.00;;;;;;;;;;5093296;28;20855;-72
2022/01/09 08:11:11;;;;;;;4.83;1.23;;;;;;;;;;5093342;28;20492;-72
2022/01/09 08:13:37;;;;;;;1.33;0.93;;;;;;;;;;5093259;28;20400;-71
2022/01/09 08:16:03;;;;;;;1.53;1.43;;;;;;;;;;5093171;28;20415;-72
2022/01/09 08:18:29;;;;;;;1.77;1.03;;;;;;;;;;5091928;28;20427;-72
2022/01/09 08:20:55;;;;;;;6.10;1.73;;;;;;;;;;5093166;28;20472;-71
2022/01/09 08:23:21;;;;;;;4.13;1.10;;;;;;;;;;5091967;28;20421;-73
2022/01/09 08:25:47;;;;;;;6.03;1.33;;;;;;;;;;5091901;28;20760;-71
2022/01/09 08:28:13;;;;;;;4.87;1.20;;;;;;;;;;5093128;28;20440;-75
2022/01/09 08:30:39;;;;;;;7.77;1.50;;;;;;;;;;5093216;28;20389;-72
2022/01/09 08:33:05;;;;;;;2.37;1.23;;;;;;;;;;5093096;28;20497;-73
2022/01/09 08:35:31;;;;;;;5.17;1.93;;;;;;;;;;5091793;28;20492;-72
2022/01/09 08:37:57;;;;;;;5.93;1.43;;;;;;;;;;5093083;28;20403;-71
2022/01/09 08:40:23;;;;;;;5.23;1.20;;;;;;;;;;5092981;28;20477;-75
2022/01/09 08:42:50;;;;;;;5.37;1.33;;;;;;;;;;5093132;28;20760;-70
2022/01/09 08:45:17;;;;;;;2.90;1.10;;;;;;;;;;5092927;28;20416;-68
2022/01/09 08:47:43;;;;;;;1.27;1.10;;;;;;;;;;5091681;28;20444;-73
2022/01/09 08:50:10;;;;;;;7.47;1.60;;;;;;;;;;5091763;28;20424;-69
2022/01/09 08:52:36;;;;;;;5.07;2.00;;;;;;;;;;5094117;28;20462;-70
2022/01/09 08:55:06;;;;;;;4.03;1.17;;;;;;;;;;5096805;28;20421;-69
2022/01/09 08:57:32;;;;;;;2.83;1.30;;;;;;;;;;5094475;28;20443;-72
2022/01/09 08:59:58;;;;;;;4.63;1.40;;;;;;;;;;5058579;28;20508;-70
2022/01/09 09:02:24;;;;;;;2.00;1.23;;;;;;;;;;5076442;28;20407;-74
2022/01/09 09:04:50;;;;;;;2.37;1.10;;;;;;;;;;5076480;28;20408;-73
2022/01/09 09:07:18;;;;;;;6.23;1.17;;;;;;;;;;5076348;28;20397;-75
2022/01/09 09:09:45;;;;;;;3.37;1.10;;;;;;;;;;5076075;28;20439;-74
2022/01/09 09:12:11;;;;;;;3.57;1.10;;;;;;;;;;5076269;28;20412;-75
2022/01/09 09:14:37;;;;;;;5.47;1.37;;;;;;;;;;5076159;28;20402;-74
2022/01/09 09:17:03;;;;;;;8.00;1.20;;;;;;;;;;5076166;28;20417;-72
2022/01/09 09:19:30;;;;;;;4.80;1.83;;;;;;;;;;5076116;28;20552;-71
2022/01/09 09:21:56;;;;;;;4.97;2.47;;;;;;;;;;5075958;28;20958;-74
2022/01/09 09:24:22;;;;;;;2.63;1.40;;;;;;;;;;5058219;28;20510;-74
2022/01/09 09:26:48;;;;;;;2.80;1.47;;;;;;;;;;5075951;28;20398;-74
2022/01/09 09:29:14;;;;;;;1.17;1.07;;;;;;;;;;5075954;28;20484;-69
2022/01/09 09:31:40;;;;;;;6.43;1.63;;;;;;;;;;5075892;28;20831;-71
2022/01/09 09:34:08;;;;;;;3.23;1.40;;;;;;;;;;5075951;28;20485;-71
2022/01/09 09:36:34;;;;;;;3.70;1.37;;;;;;;;;;5075869;28;20502;-72
2022/01/09 09:39:00;;;;;;;5.90;1.33;;;;;;;;;;5075700;28;20468;-74
2022/01/09 09:41:26;;;;;;;10.00;2.03;;;;;;;;;;5057886;28;20415;-70
2022/01/09 09:43:53;;;;;;;5.07;1.30;;;;;;;;;;5075784;28;20504;-70
2022/01/09 09:46:24;;;;;;;3.33;1.20;;;;;;;;;;5075585;28;20409;-69
2022/01/09 09:48:51;;;;;;;2.20;1.20;;;;;;;;;;5075499;28;20756;-71
2022/01/09 09:51:18;;;;;;;4.63;1.10;;;;;;;;;;5075489;28;20513;-72
2022/01/09 09:53:44;;;;;;;2.20;1.07;;;;;;;;;;5075558;28;20405;-72
2022/01/09 09:56:10;;;;;;;4.50;1.67;;;;;;;;;;5075441;28;20408;-71
2022/01/09 09:58:39;;;;;;;4.00;1.50;;;;;;;;;;5073115;28;20465;-72
2022/01/09 10:01:05;;;;;;;3.20;1.60;;;;;;;;;;5094318;28;20475;-71
2022/01/09 10:03:32;;;;;;;4.87;1.90;;;;;;;;;;5095465;28;20401;-70
2022/01/09 10:05:58;;;;;;;4.73;1.50;;;;;;;;;;5095031;28;20895;-73
2022/01/09 10:08:37;;;;;;;4.63;2.03;;;;;;;;;;5094241;28;20417;-73
2022/01/09 10:11:17;;;;;;;6.13;1.67;;;;;;;;;;5094164;28;20412;-72
2022/01/09 10:13:43;;;;;;;2.53;1.20;;;;;;;;;;5094083;28;20405;-70
2022/01/09 10:16:10;;;;;;;6.30;1.23;;;;;;;;;;5094028;28;20508;-71
2022/01/09 10:18:43;;;;;;;3.13;1.53;;;;;;;;;;5095256;28;20404;-69
2022/01/09 10:21:09;;;;;;;3.83;1.53;;;;;;;;;;5095338;28;20559;-73
2022/01/09 10:23:35;;;;;;;2.17;1.10;;;;;;;;;;5095166;28;20902;-72
2022/01/09 10:26:13;;;;;;;7.97;1.90;;;;;;;;;;5093919;28;20426;-70
2022/01/09 10:28:40;;;;;;;7.33;1.10;;;;;;;;;;5093744;28;20436;-73
2022/01/09 10:31:15;;;;;;;2.83;1.70;;;;;;;;;;5095051;28;20494;-72
2022/01/09 10:33:41;;;;;;;2.33;1.53;;;;;;;;;;5093855;28;20421;-72
2022/01/09 10:36:09;;;;;;;3.40;1.43;;;;;;;;;;5094947;28;20461;-72
2022/01/09 10:38:35;;;;;;;1.83;1.40;;;;;;;;;;5094887;28;20417;-70
2022/01/09 10:41:03;;;;;;;3.73;1.87;;;;;;;;;;5094773;28;20467;-70
2022/01/09 10:43:41;;;;;;;7.00;2.00;;;;;;;;;;5093462;28;20921;-71
2022/01/09 10:46:07;;;;;;;4.47;2.37;;;;;;;;;;5094742;28;20441;-70
2022/01/09 10:48:34;;;;;;;7.77;1.50;;;;;;;;;;5094675;28;20442;-69
2022/01/09 10:51:01;;;;;;;7.97;1.87;;;;;;;;;;5094654;28;20445;-72
2022/01/09 10:53:31;;;;;;;2.40;1.57;;;;;;;;;;5094771;28;20409;-70
2022/01/09 10:56:01;;;;;;;4.10;1.60;;;;;;;;;;5093285;28;20415;-70
2022/01/09 10:58:28;;;;;;;3.53;1.40;;;;;;;;;;5085769;28;20470;-73
2022/01/09 11:01:06;;;;;;;5.07;1.40;;;;;;;;;;5074153;28;21050;-72
2022/01/09 11:03:32;;;;;;;2.97;1.00;;;;;;;;;;5074083;28;20396;-74
2022/01/09 11:06:00;;;;;;;3.13;1.20;;;;;;;;;;5074186;28;20410;-71
2022/01/09 11:08:26;;;;;;;5.17;1.53;;;;;;;;;;5074059;28;20440;-72
2022/01/09 11:10:53;;;;;;;3.17;1.20;;;;;;;;;;5056092;28;20442;-72
2022/01/09 11:13:19;;;;;;;4.40;1.40;;;;;;;;;;5073935;28;20413;-75
2022/01/09 11:16:32;;;;;;;1.63;1.30;;;;;;;;;;5073021;28;20417;-75
2022/01/09 11:18:32;;;;;;;2.30;1.33;;;;;;;;;;5073575;28;20893;-73
2022/01/09 11:20:58;;;;;;;7.73;1.23;;;;;;;;;;5073766;28;20522;-76
2022/01/09 11:23:29;;;;;;;4.67;1.27;;;;;;;;;;5055844;28;20422;-72
2022/01/09 11:25:57;;;;;;;2.47;1.20;;;;;;;;;;5073810;28;20932;-74
2022/01/09 11:28:25;;;;;;;4.77;1.37;;;;;;;;;;5073576;28;20446;-69
2022/01/09 11:31:14;;;;;;;6.63;1.50;;;;;;;;;;5073516;28;20416;-70
2022/01/09 11:33:59;;;;;;;3.17;1.40;;;;;;;;;;5055793;28;20438;-71
2022/01/09 11:36:25;;;;;;;4.63;1.23;;;;;;;;;;5055536;28;20409;-74
2022/01/09 11:39:13;;;;;;;4.43;1.50;;;;;;;;;;5073374;28;20401;-72
2022/01/09 11:41:42;;;;;;;4.73;1.20;;;;;;;;;;5073506;28;20428;-74
2022/01/09 11:44:10;;;;;;;2.83;1.63;;;;;;;;;;5073405;28;20403;-71
2022/01/09 11:46:59;;;;;;;4.67;1.57;;;;;;;;;;5073455;28;20408;-73
2022/01/09 11:49:26;;;;;;;3.73;1.70;;;;;;;;;;5073606;28;20443;-75
2022/01/09 11:51:59;;;;;;;4.33;1.60;;;;;;;;;;5073655;28;20389;-75
2022/01/09 11:54:26;;;;;;;3.20;1.40;;;;;;;;;;5055498;28;20418;-74
2022/01/09 11:56:52;;;;;;;4.90;1.50;;;;;;;;;;5073155;28;20792;-75
2022/01/09 11:59:37;;;;;;;2.23;1.43;;;;;;;;;;5082251;28;20804;-74
2022/01/09 12:02:03;;;;;;;5.43;1.43;;;;;;;;;;5093416;28;20406;-75
2022/01/09 12:04:35;;;;;;;2.47;1.73;;;;;;;;;;5093464;28;20408;-76
2022/01/09 12:07:12;;;;;;;2.30;1.33;;;;;;;;;;5093433;28;20404;-75
2022/01/09 12:09:42;;;;;;;2.17;1.30;;;;;;;;;;5092068;28;20417;-75
2022/01/09 12:12:10;;;;;;;2.90;1.70;;;;;;;;;;5093410;28;20409;-76
2022/01/09 12:14:42;;;;;;;6.20;1.13;;;;;;;;;;5093200;28;20415;-74
2022/01/09 12:17:23;;;;;;;1.87;1.20;;;;;;;;;;5093285;28;20396;-75
2022/01/09 12:20:09;;;;;;;2.57;1.20;;;;;;;;;;5091925;28;20502;-75
2022/01/09 12:22:51;;;;;;;7.30;2.40;;;;;;;;;;5093144;28;20395;-76
2022/01/09 12:25:30;;;;;;;5.67;1.50;;;;;;;;;;5092051;28;20413;-75
2022/01/09 12:28:02;;;;;;;2.00;1.17;;;;;;;;;;5094906;28;20414;-75
2022/01/09 12:30:32;;;;;;;2.70;1.10;;;;;;;;;;5096214;28;20412;-75
2022/01/09 12:32:59;;;;;;;3.90;1.63;;;;;;;;;;5097449;28;20380;-73
2022/01/09 12:35:25;;;;;;;2.90;1.40;;;;;;;;;;5097204;28;20434;-75
2022/01/09 12:37:53;;;;;;;4.13;1.50;;;;;;;;;;5097193;28;20442;-71
2022/01/09 12:40:20;;;;;;;4.50;1.40;;;;;;;;;;5095822;28;20468;-71
2022/01/09 12:42:47;;;;;;;3.50;1.97;;;;;;;;;;5097216;28;20771;-73
2022/01/09 12:45:23;;;;;;;3.23;1.30;;;;;;;;;;5097283;28;20853;-75
2022/01/09 12:47:49;;;;;;;4.83;1.67;;;;;;;;;;5096946;28;20402;-77
2022/01/09 12:50:16;;;;;;;4.20;1.40;;;;;;;;;;5097225;28;20469;-75
2022/01/09 12:52:42;;;;;;;9.03;1.80;;;;;;;;;;5097052;28;20396;-75
2022/01/09 12:55:15;;;;;;;1.90;1.10;;;;;;;;;;5096899;28;20405;-77
2022/01/09 12:57:50;;;;;;;2.70;1.30;;;;;;;;;;5094664;28;20476;-73
2022/01/09 13:00:16;;;;;;;3.53;1.57;;;;;;;;;;5076615;28;20459;-76
2022/01/09 13:02:52;;;;;;;6.73;1.27;;;;;;;;;;5076411;28;20397;-76
2022/01/09 13:05:28;;;;;;;4.27;1.87;;;;;;;;;;5076534;28;20406;-77
2022/01/09 13:08:01;;;;;;;2.50;1.03;;;;;;;;;;5058465;28;20981;-77
2022/01/09 13:10:34;;;;;;;3.17;1.27;;;;;;;;;;5076378;28;20498;-76
2022/01/09 13:13:04;;;;;;;2.47;1.87;;;;;;;;;;5058368;28;20413;-76
2022/01/09 13:15:37;;;;;;;4.13;1.60;;;;;;;;;;5076188;28;20861;-76
2022/01/09 13:18:03;;;;;;;1.60;1.50;;;;;;;;;;5076262;28;20893;-76
2022/01/09 13:20:30;;;;;;;2.13;1.67;;;;;;;;;;5076135;28;20468;-76
2022/01/09 13:23:06;;;;;;;3.87;1.40;;;;;;;;;;5076084;28;20410;-75
2022/01/09 13:26:02;;;;;;;2.93;1.33;;;;;;;;;;5076353;28;20419;-75
2022/01/09 13:28:28;;;;;;;2.90;1.30;;;;;;;;;;5058754;28;20959;-77
2022/01/09 13:30:58;;;;;;;4.83;1.60;;;;;;;;;;5076009;28;20405;-77
2022/01/09 13:33:24;;;;;;;1.20;1.10;;;;;;;;;;5075999;28;20413;-76
2022/01/09 13:35:51;;;;;;;3.07;1.43;;;;;;;;;;5075799;28;20401;-73
2022/01/09 13:38:18;;;;;;;3.30;1.20;;;;;;;;;;5075635;28;20405;-73
2022/01/09 13:40:45;;;;;;;1.17;1.07;;;;;;;;;;5074783;28;20472;-76
2022/01/09 13:43:11;;;;;;;2.80;1.37;;;;;;;;;;5057710;28;20482;-75
2022/01/09 13:45:39;;;;;;;4.40;1.30;;;;;;;;;;5075711;28;20711;-76
2022/01/09 13:48:05;;;;;;;2.23;1.40;;;;;;;;;;5057646;28;20905;-77
2022/01/09 13:50:33;;;;;;;1.50;1.40;;;;;;;;;;5075688;28;20403;-78
2022/01/09 13:53:15;;;;;;;1.20;1.00;;;;;;;;;;5075527;28;20460;-77
2022/01/09 13:55:41;;;;;;;4.47;1.07;;;;;;;;;;5057391;28;20418;-78
2022/01/09 13:58:09;;;;;;;2.03;1.30;;;;;;;;;;5075098;28;20551;-76
2022/01/09 14:00:37;;;;;;;3.70;1.00;;;;;;;;;;5075295;28;20468;-77
2022/01/09 14:03:04;;;;;;;2.67;1.27;;;;;;;;;;5075434;28;20410;-77
2022/01/09 14:05:41;;;;;;;2.70;1.00;;;;;;;;;;5057398;28;20461;-77
2022/01/09 14:08:10;;;;;;;3.47;1.30;;;;;;;;;;5075311;28;20467;-75
2022/01/09 14:10:46;;;;;;;3.33;1.20;;;;;;;;;;5075320;28;20441;-76
2022/01/09 14:13:20;;;;;;;4.73;1.40;;;;;;;;;;5075174;28;20432;-77
2022/01/09 14:15:47;;;;;;;2.97;1.47;;;;;;;;;;5075004;28;20868;-77
2022/01/09 14:18:30;;;;;;;4.93;1.30;;;;;;;;;;5075015;28;20418;-77
2022/01/09 14:21:14;;;;;;;2.67;1.23;;;;;;;;;;5075003;28;20791;-77
2022/01/09 14:23:41;;;;;;;2.33;1.10;;;;;;;;;;5057015;28;20413;-76
2022/01/09 14:26:14;;;;;;;3.80;1.20;;;;;;;;;;5074959;28;20401;-77
2022/01/09 14:28:41;;;;;;;3.40;1.40;;;;;;;;;;5056847;28;20442;-76
2022/01/09 14:31:09;;;;;;;3.13;1.20;;;;;;;;;;5075094;28;20402;-73
2022/01/09 14:33:38;;;;;;;1.13;1.00;;;;;;;;;;5074875;28;20415;-72
2022/01/09 14:36:04;;;;;;;1.67;1.20;;;;;;;;;;5074654;28;20487;-70
2022/01/09 14:38:31;;;;;;;3.90;1.57;;;;;;;;;;5074635;28;20457;-73
2022/01/09 14:41:02;;;;;;;2.37;1.30;;;;;;;;;;5074448;28;20474;-71
2022/01/09 14:43:29;;;;;;;5.90;1.77;;;;;;;;;;5074373;28;20409;-74
2022/01/09 14:45:55;;;;;;;2.30;1.67;;;;;;;;;;5074533;28;20400;-76